createdAt,value
2022-11-20T00:01:11.548Z,38.72
2022-11-20T00:03:24.568Z,38.94
2022-11-20T00:05:39.007Z,38.75
2022-11-20T00:07:51.712Z,38.84
2022-11-20T00:10:04.205Z,38.97
2022-11-20T00:12:18.196Z,39.14
2022-11-20T00:14:30.804Z,39.30
2022-11-20T00:16:43.411Z,39.22
2022-11-20T00:18:56.896Z,39.15
2022-11-20T00:21:10.961Z,39.44
2022-11-20T00:23:23.790Z,39.54
2022-11-20T00:25:37.726Z,39.56
2022-11-20T00:27:50.398Z,39.55
2022-11-20T00:30:02.974Z,39.72
2022-11-20T00:32:15.714Z,39.87
2022-11-20T00:34:28.766Z,39.49
2022-11-20T00:36:41.183Z,39.69
2022-11-20T00:38:55.422Z,39.91
2022-11-20T00:41:09.743Z,40.06
2022-11-20T00:43:22.489Z,40.28
2022-11-20T00:45:34.958Z,40.24
2022-11-20T00:47:47.677Z,40.31
2022-11-20T00:50:00.722Z,40.46
2022-11-20T00:52:13.719Z,40.57
2022-11-20T00:54:26.661Z,40.63
2022-11-20T00:56:39.259Z,40.60
2022-11-20T00:58:52.784Z,40.46
2022-11-20T01:01:09.933Z,40.75
2022-11-20T01:03:26.855Z,40.58
2022-11-20T01:05:43.311Z,40.85
2022-11-20T01:07:55.858Z,41.25
2022-11-20T01:10:08.634Z,41.35
2022-11-20T01:12:21.206Z,41.17
2022-11-20T01:14:33.603Z,41.06
2022-11-20T01:16:47.640Z,41.58
2022-11-20T01:19:01.930Z,41.18
2022-11-20T01:21:16.176Z,41.27
2022-11-20T01:23:29.049Z,41.97
2022-11-20T01:25:42.025Z,41.68
2022-11-20T01:27:55.864Z,41.79
2022-11-20T01:30:09.176Z,42.11
2022-11-20T01:32:21.695Z,42.46
2022-11-20T01:34:35.016Z,42.24
2022-11-20T01:36:48.927Z,42.25
2022-11-20T01:39:02.857Z,42.32
2022-11-20T01:41:37.494Z,42.40
2022-11-20T01:43:50.152Z,42.33
2022-11-20T01:46:08.506Z,42.77
2022-11-20T01:48:22.106Z,42.75
2022-11-20T01:50:36.137Z,42.64
2022-11-20T01:52:54.443Z,42.89
2022-11-20T01:55:11.153Z,43.12
2022-11-20T01:57:26.098Z,43.08
2022-11-20T01:59:39.978Z,43.33
2022-11-20T02:01:52.920Z,43.37
2022-11-20T02:04:06.833Z,43.29
2022-11-20T02:06:23.331Z,43.39
2022-11-20T02:08:36.684Z,42.98
2022-11-20T02:10:50.059Z,42.83
2022-11-20T02:13:20.037Z,43.11
2022-11-20T02:15:32.950Z,43.40
2022-11-20T02:17:45.658Z,43.52
2022-11-20T02:19:58.595Z,43.70
2022-11-20T02:22:16.699Z,43.47
2022-11-20T02:24:29.758Z,43.26
2022-11-20T02:26:50.924Z,42.99
2022-11-20T02:29:04.602Z,43.22
2022-11-20T02:31:17.322Z,43.40
2022-11-20T02:33:31.469Z,43.42
2022-11-20T02:35:53.845Z,43.44
2022-11-20T02:38:08.576Z,43.40
2022-11-20T02:40:21.502Z,43.26
2022-11-20T02:42:33.940Z,43.14
2022-11-20T02:44:46.705Z,43.25
2022-11-20T02:47:01.168Z,43.42
2022-11-20T02:49:13.814Z,43.43
2022-11-20T02:51:27.225Z,43.85
2022-11-20T02:53:39.887Z,43.61
2022-11-20T02:55:53.046Z,43.49
2022-11-20T02:58:05.490Z,44.04
2022-11-20T03:00:21.188Z,43.91
2022-11-20T03:02:36.511Z,43.91
2022-11-20T03:04:49.171Z,43.98
2022-11-20T03:07:01.782Z,44.01
2022-11-20T03:09:14.616Z,44.07
2022-11-20T03:11:28.040Z,44.24
2022-11-20T03:13:41.353Z,44.25
2022-11-20T03:15:54.569Z,44.09
2022-11-20T03:18:06.945Z,44.04
2022-11-20T03:20:20.061Z,44.09
2022-11-20T03:22:33.816Z,44.07
2022-11-20T03:24:46.193Z,43.91
2022-11-20T03:26:59.185Z,44.05
2022-11-20T03:29:11.804Z,44.13
2022-11-20T03:31:26.496Z,44.01
2022-11-20T03:33:38.989Z,43.87
2022-11-20T03:35:52.408Z,43.98
2022-11-20T03:38:04.919Z,43.95
2022-11-20T03:40:18.555Z,43.77
2022-11-20T03:42:50.595Z,43.84
2022-11-20T03:45:03.367Z,44.08
2022-11-20T03:47:15.728Z,44.01
2022-11-20T03:49:28.446Z,44.12
2022-11-20T03:51:41.339Z,44.25
2022-11-20T03:53:55.511Z,44.52
2022-11-20T03:56:08.587Z,44.56
2022-11-20T03:58:21.609Z,44.71
2022-11-20T04:00:34.199Z,44.62
2022-11-20T04:02:47.087Z,44.40
2022-11-20T04:05:00.103Z,44.41
2022-11-20T04:07:12.912Z,44.70
2022-11-20T04:09:25.775Z,44.77
2022-11-20T04:11:40.792Z,45.04
2022-11-20T04:13:57.028Z,45.01
2022-11-20T04:16:10.088Z,45.10
2022-11-20T04:18:23.084Z,45.13
2022-11-20T04:20:36.721Z,45.47
2022-11-20T04:22:49.367Z,45.43
2022-11-20T04:25:02.177Z,45.46
2022-11-20T04:27:14.782Z,45.51
2022-11-20T04:29:27.549Z,45.56
2022-11-20T04:31:40.594Z,45.54
2022-11-20T04:33:54.427Z,45.50
2022-11-20T04:36:10.342Z,45.73
2022-11-20T04:38:23.468Z,45.81
2022-11-20T04:40:36.942Z,45.99
2022-11-20T04:42:49.617Z,45.97
2022-11-20T04:45:02.806Z,46.07
2022-11-20T04:47:16.557Z,46.06
2022-11-20T04:49:29.171Z,46.09
2022-11-20T04:51:41.918Z,46.17
2022-11-20T04:53:54.652Z,46.25
2022-11-20T04:56:13.020Z,46.45
2022-11-20T04:58:26.543Z,46.44
2022-11-20T05:00:39.557Z,46.51
2022-11-20T05:02:52.443Z,46.45
2022-11-20T05:05:05.359Z,46.53
2022-11-20T05:07:18.053Z,46.77
2022-11-20T05:09:31.475Z,46.69
2022-11-20T05:11:45.509Z,46.68
2022-11-20T05:14:02.780Z,46.71
2022-11-20T05:16:16.994Z,46.82
2022-11-20T05:18:30.000Z,47.00
2022-11-20T05:20:42.826Z,47.02
2022-11-20T05:22:55.985Z,46.86
2022-11-20T05:25:09.168Z,46.89
2022-11-20T05:27:21.903Z,46.87
2022-11-20T05:29:34.615Z,46.77
2022-11-20T05:31:48.198Z,46.92
2022-11-20T05:34:02.482Z,46.92
2022-11-20T05:36:16.711Z,47.02
2022-11-20T05:38:29.616Z,47.02
2022-11-20T05:40:42.638Z,47.11
2022-11-20T05:42:55.053Z,47.15
2022-11-20T05:45:09.055Z,47.31
2022-11-20T05:47:22.430Z,47.53
2022-11-20T05:49:35.142Z,47.57
2022-11-20T05:51:48.211Z,47.61
2022-11-20T05:54:02.238Z,47.58
2022-11-20T05:56:17.454Z,47.55
2022-11-20T05:58:30.176Z,47.54
2022-11-20T06:00:42.929Z,47.63
2022-11-20T06:02:56.001Z,47.48
2022-11-20T06:05:09.620Z,47.52
2022-11-20T06:07:23.068Z,47.53
2022-11-20T06:09:35.997Z,47.53
2022-11-20T06:11:49.599Z,47.48
2022-11-20T06:14:02.587Z,47.66
2022-11-20T06:16:17.150Z,47.73
2022-11-20T06:18:30.452Z,47.74
2022-11-20T06:20:42.982Z,47.86
2022-11-20T06:22:55.819Z,47.70
2022-11-20T06:25:08.400Z,47.80
2022-11-20T06:27:20.953Z,47.86
2022-11-20T06:29:34.257Z,47.84
2022-11-20T06:31:47.187Z,47.99
2022-11-20T06:34:00.804Z,48.01
2022-11-20T06:36:14.507Z,48.00
2022-11-20T06:38:27.885Z,47.95
2022-11-20T06:40:40.275Z,48.02
2022-11-20T06:42:52.713Z,47.83
2022-11-20T06:45:05.808Z,47.93
2022-11-20T06:47:18.504Z,47.77
2022-11-20T06:49:32.760Z,47.83
2022-11-20T06:51:45.469Z,47.87
2022-11-20T06:53:58.109Z,47.77
2022-11-20T06:56:12.162Z,47.84
2022-11-20T06:58:24.999Z,47.92
2022-11-20T07:00:37.755Z,48.05
2022-11-20T07:02:50.400Z,48.13
2022-11-20T07:05:03.400Z,48.03
2022-11-20T07:07:16.288Z,48.18
2022-11-20T07:09:28.823Z,48.21
2022-11-20T07:11:41.398Z,48.25
2022-11-20T07:13:54.207Z,48.21
2022-11-20T07:16:09.946Z,48.43
2022-11-20T07:18:22.629Z,48.30
2022-11-20T07:20:35.415Z,48.36
2022-11-20T07:22:48.632Z,48.42
2022-11-20T07:25:01.897Z,48.42
2022-11-20T07:27:14.926Z,48.41
2022-11-20T07:29:28.025Z,48.49
2022-11-20T07:31:40.812Z,48.38
2022-11-20T07:33:53.321Z,48.54
2022-11-20T07:36:07.943Z,48.63
2022-11-20T07:38:21.095Z,48.65
2022-11-20T07:40:33.940Z,48.65
2022-11-20T07:42:54.069Z,48.59
2022-11-20T07:45:06.970Z,48.67
2022-11-20T07:47:19.443Z,48.96
2022-11-20T07:49:32.335Z,48.74
2022-11-20T07:51:47.896Z,48.82
2022-11-20T07:54:03.044Z,48.74
2022-11-20T07:56:16.219Z,48.92
2022-11-20T07:58:29.225Z,48.87
2022-11-20T08:00:42.261Z,48.83
2022-11-20T08:02:55.051Z,48.83
2022-11-20T08:05:08.128Z,48.78
2022-11-20T08:07:21.069Z,48.81
2022-11-20T08:09:34.677Z,48.88
2022-11-20T08:12:04.293Z,48.86
2022-11-20T08:14:16.704Z,48.72
2022-11-20T08:16:30.092Z,48.60
2022-11-20T08:18:43.258Z,48.82
2022-11-20T08:20:56.190Z,48.74
2022-11-20T08:23:10.695Z,48.65
2022-11-20T08:25:23.281Z,48.82
2022-11-20T08:27:38.778Z,48.72
2022-11-20T08:29:52.082Z,48.81
2022-11-20T08:32:04.471Z,48.69
2022-11-20T08:34:23.964Z,48.68
2022-11-20T08:36:39.757Z,48.71
2022-11-20T08:38:56.400Z,48.80
2022-11-20T08:41:30.526Z,48.71
2022-11-20T08:43:43.601Z,48.95
2022-11-20T08:45:56.098Z,49.05
2022-11-20T08:48:10.150Z,48.90
2022-11-20T08:50:23.997Z,49.16
2022-11-20T08:52:39.856Z,48.95
2022-11-20T08:54:52.885Z,48.98
2022-11-20T08:57:05.698Z,48.98
2022-11-20T08:59:36.711Z,49.16
2022-11-20T09:01:51.942Z,49.10
2022-11-20T09:04:06.681Z,49.03
2022-11-20T09:06:19.068Z,49.07
2022-11-20T09:08:33.323Z,49.18
2022-11-20T09:10:46.029Z,49.01
2022-11-20T09:12:58.897Z,48.98
2022-11-20T09:15:13.167Z,48.90
2022-11-20T09:17:25.747Z,49.19
2022-11-20T09:19:38.450Z,49.20
2022-11-20T09:21:53.576Z,48.93
2022-11-20T09:24:09.414Z,49.11
2022-11-20T09:26:21.828Z,49.04
2022-11-20T09:28:34.752Z,49.12
2022-11-20T09:30:47.557Z,49.36
2022-11-20T09:33:00.632Z,49.14
2022-11-20T09:35:14.843Z,49.20
2022-11-20T09:37:28.120Z,49.27
2022-11-20T09:39:40.943Z,49.28
2022-11-20T09:42:12.024Z,49.24
2022-11-20T09:44:39.972Z,49.13
2022-11-20T09:46:57.648Z,49.20
2022-11-20T09:49:29.139Z,49.14
2022-11-20T09:51:55.616Z,49.03
2022-11-20T09:54:19.206Z,49.04
2022-11-20T09:56:33.499Z,49.13
2022-11-20T09:58:48.845Z,48.93
2022-11-20T10:01:08.393Z,48.99
2022-11-20T10:03:26.483Z,48.98
2022-11-20T10:05:45.106Z,48.95
2022-11-20T10:08:04.619Z,48.97
2022-11-20T10:10:25.986Z,48.89
2022-11-20T10:13:00.576Z,48.92
2022-11-20T10:15:30.937Z,48.87
2022-11-20T10:18:03.348Z,48.88
2022-11-20T10:20:28.974Z,49.04
2022-11-20T10:23:03.767Z,48.89
2022-11-20T10:25:22.136Z,49.12
2022-11-20T10:28:10.776Z,49.19
2022-11-20T10:30:27.310Z,49.18
2022-11-20T10:32:43.633Z,49.11
2022-11-20T10:35:01.730Z,49.20
2022-11-20T10:37:20.334Z,49.18
2022-11-20T10:39:43.452Z,49.40
2022-11-20T10:41:57.691Z,49.24
2022-11-20T10:44:16.812Z,49.35
2022-11-20T10:46:36.865Z,49.32
2022-11-20T10:48:51.406Z,49.44
2022-11-20T10:51:22.362Z,49.40
2022-11-20T10:53:52.635Z,49.24
2022-11-20T10:56:11.712Z,49.44
2022-11-20T10:58:34.151Z,49.38
2022-11-20T11:00:47.229Z,49.43
2022-11-20T11:03:04.434Z,49.43
2022-11-20T11:05:32.071Z,49.33
2022-11-20T11:07:46.513Z,49.28
2022-11-20T11:10:00.832Z,49.39
2022-11-20T11:12:16.274Z,49.39
2022-11-20T11:14:29.007Z,49.25
2022-11-20T11:16:53.105Z,49.31
2022-11-20T11:19:16.607Z,49.15
2022-11-20T11:21:33.393Z,49.17
2022-11-20T11:23:46.911Z,49.22
2022-11-20T11:26:07.272Z,49.34
2022-11-20T11:28:29.891Z,49.39
2022-11-20T11:30:51.500Z,49.48
2022-11-20T11:33:22.437Z,49.55
2022-11-20T11:35:35.306Z,49.55
2022-11-20T11:37:50.021Z,49.72
2022-11-20T11:42:36.246Z,49.85
2022-11-20T11:45:09.933Z,49.83
2022-11-20T11:47:28.740Z,50.01
2022-11-20T11:49:42.388Z,49.96
2022-11-20T11:52:06.297Z,50.06
2022-11-20T11:54:26.137Z,50.25
2022-11-20T11:56:40.665Z,50.37
2022-11-20T11:58:57.249Z,50.28
2022-11-20T12:01:17.037Z,50.34
2022-11-20T12:03:38.527Z,50.50
2022-11-20T12:05:55.131Z,50.63
2022-11-20T12:08:14.434Z,50.86
2022-11-20T12:10:38.750Z,50.92
2022-11-20T12:12:56.809Z,51.02
2022-11-20T12:15:14.994Z,51.20
2022-11-20T12:17:27.814Z,51.39
2022-11-20T12:19:41.303Z,51.50
2022-11-20T12:22:05.019Z,51.49
2022-11-20T12:24:44.740Z,51.87
2022-11-20T12:27:16.236Z,52.06
2022-11-20T12:29:39.517Z,52.14
2022-11-20T12:32:10.550Z,52.28
2022-11-20T12:34:37.044Z,52.53
2022-11-20T12:37:01.067Z,52.82
2022-11-20T12:39:45.268Z,52.84
2022-11-20T12:42:38.209Z,52.95
2022-11-20T12:45:14.799Z,53.08
2022-11-20T12:47:37.568Z,53.17
2022-11-20T12:49:59.664Z,53.24
2022-11-20T12:52:33.578Z,53.30
2022-11-20T12:55:12.401Z,53.44
2022-11-20T12:57:33.095Z,53.61
2022-11-20T13:00:04.488Z,53.71
2022-11-20T13:02:29.872Z,53.62
2022-11-20T13:04:57.463Z,53.66
2022-11-20T13:07:13.052Z,53.79
2022-11-20T13:09:27.992Z,53.87
2022-11-20T13:11:47.339Z,53.80
2022-11-20T13:14:24.325Z,54.07
2022-11-20T13:16:42.838Z,53.96
2022-11-20T13:18:56.158Z,54.14
2022-11-20T13:21:17.215Z,54.05
2022-11-20T13:23:33.821Z,54.29
2022-11-20T13:25:47.127Z,54.29
2022-11-20T13:28:00.514Z,54.37
2022-11-20T13:30:24.070Z,54.30
2022-11-20T13:32:36.824Z,54.40
2022-11-20T13:34:59.063Z,54.33
2022-11-20T13:37:24.445Z,54.34
2022-11-20T13:39:38.310Z,54.38
2022-11-20T13:42:01.375Z,54.27
2022-11-20T13:44:19.577Z,54.16
2022-11-20T13:46:44.971Z,54.10
2022-11-20T13:48:59.447Z,53.87
2022-11-20T13:51:22.531Z,54.18
2022-11-20T13:53:56.585Z,54.02
2022-11-20T13:56:16.267Z,54.07
2022-11-20T13:58:40.280Z,53.94
2022-11-20T14:00:58.696Z,53.85
2022-11-20T14:03:28.385Z,53.93
2022-11-20T14:06:00.937Z,53.81
2022-11-20T14:08:24.666Z,53.72
2022-11-20T14:10:37.342Z,53.88
2022-11-20T14:12:50.075Z,53.82
2022-11-20T14:15:03.444Z,53.85
2022-11-20T14:17:24.688Z,53.63
2022-11-20T14:19:39.171Z,53.63
2022-11-20T14:21:53.191Z,53.66
2022-11-20T14:24:18.005Z,53.69
2022-11-20T14:26:31.238Z,53.60
2022-11-20T14:28:44.476Z,53.58
2022-11-20T14:30:57.757Z,53.36
2022-11-20T14:33:11.100Z,53.36
2022-11-20T14:35:29.172Z,53.45
2022-11-20T14:37:45.154Z,53.43
2022-11-20T14:40:00.917Z,53.43
2022-11-20T14:42:22.898Z,53.83
2022-11-20T14:44:39.129Z,53.78
2022-11-20T14:46:52.506Z,53.92
2022-11-20T14:49:08.306Z,54.03
2022-11-20T14:51:31.378Z,54.09
2022-11-20T14:53:44.211Z,54.24
2022-11-20T14:56:03.275Z,54.23
2022-11-20T14:58:28.725Z,54.38
2022-11-20T15:00:41.718Z,54.53
2022-11-20T15:02:55.976Z,54.80
2022-11-20T15:05:10.033Z,54.69
2022-11-20T15:07:33.554Z,54.86
2022-11-20T15:09:46.270Z,54.95
2022-11-20T15:12:04.223Z,54.96
2022-11-20T15:14:19.015Z,55.07
2022-11-20T15:16:35.163Z,55.22
2022-11-20T15:18:48.273Z,55.22
2022-11-20T15:21:02.849Z,55.46
2022-11-20T15:23:20.403Z,55.43
2022-11-20T15:25:33.252Z,55.49
2022-11-20T15:27:46.052Z,55.31
2022-11-20T15:29:58.868Z,55.61
2022-11-20T15:32:13.644Z,55.50
2022-11-20T15:34:26.642Z,55.49
2022-11-20T15:36:39.501Z,55.65
2022-11-20T15:38:52.628Z,55.86
2022-11-20T15:41:05.353Z,55.96
2022-11-20T15:43:18.322Z,56.00
2022-11-20T15:45:32.368Z,55.97
2022-11-20T15:47:45.008Z,56.15
2022-11-20T15:49:57.516Z,56.35
2022-11-20T15:52:10.015Z,56.42
2022-11-20T15:54:24.926Z,56.43
2022-11-20T15:56:37.874Z,56.57
2022-11-20T15:58:50.914Z,56.74
2022-11-20T16:01:03.694Z,56.77
2022-11-20T16:03:18.609Z,57.01
2022-11-20T16:05:34.851Z,56.82
2022-11-20T16:07:47.814Z,56.78
2022-11-20T16:10:00.520Z,56.75
2022-11-20T16:12:37.103Z,56.40
2022-11-20T16:15:15.534Z,55.86
2022-11-20T16:17:44.759Z,55.14
2022-11-20T16:19:57.778Z,54.49
2022-11-20T16:22:10.704Z,53.78
2022-11-20T16:24:24.445Z,53.06
2022-11-20T16:26:37.898Z,52.72
2022-11-20T16:28:50.772Z,52.13
2022-11-20T16:31:11.578Z,51.79
2022-11-20T16:33:24.684Z,51.41
2022-11-20T16:35:37.897Z,50.88
2022-11-20T16:37:50.694Z,50.05
2022-11-20T16:40:03.323Z,49.73
2022-11-20T16:42:16.004Z,49.27
2022-11-20T16:44:28.835Z,48.46
2022-11-20T16:46:41.759Z,48.39
2022-11-20T16:48:59.651Z,48.28
2022-11-20T16:51:15.699Z,47.61
2022-11-20T16:53:28.950Z,47.29
2022-11-20T16:55:41.714Z,46.76
2022-11-20T16:57:54.185Z,46.42
2022-11-20T17:00:07.344Z,46.38
2022-11-20T17:02:20.142Z,45.43
2022-11-20T17:04:33.532Z,45.17
2022-11-20T17:06:48.893Z,44.50
2022-11-20T17:09:02.163Z,43.69
2022-11-20T17:11:16.743Z,43.37
2022-11-20T17:13:29.449Z,43.26
2022-11-20T17:15:42.365Z,43.24
2022-11-20T17:17:55.319Z,43.24
2022-11-20T17:20:08.479Z,43.03
2022-11-20T17:22:21.246Z,42.70
2022-11-20T17:24:34.448Z,41.77
2022-11-20T17:26:48.251Z,41.55
2022-11-20T17:29:02.799Z,41.42
2022-11-20T17:31:17.527Z,41.70
2022-11-20T17:33:30.745Z,41.60
2022-11-20T17:35:43.895Z,41.06
2022-11-20T17:37:57.067Z,40.36
2022-11-20T17:40:11.266Z,40.16
2022-11-20T17:42:30.656Z,40.08
2022-11-20T17:44:43.783Z,40.35
2022-11-20T17:46:56.835Z,39.92
2022-11-20T17:49:09.889Z,39.76
2022-11-20T17:51:24.583Z,39.62
2022-11-20T17:53:39.879Z,39.62
2022-11-20T17:56:17.844Z,39.35
2022-11-20T17:58:33.218Z,38.98
2022-11-20T18:00:45.962Z,38.08
2022-11-20T18:02:59.087Z,37.85
2022-11-20T18:05:13.215Z,37.21
2022-11-20T18:07:26.197Z,37.93
2022-11-20T18:09:39.239Z,37.11
2022-11-20T18:11:52.386Z,36.47
2022-11-20T18:14:23.894Z,37.27
2022-11-20T18:16:38.684Z,37.07
2022-11-20T18:18:51.124Z,37.63
2022-11-20T18:21:03.894Z,37.23
2022-11-20T18:23:16.766Z,37.68
2022-11-20T18:25:30.040Z,37.75
2022-11-20T18:27:42.401Z,37.24
2022-11-20T18:29:55.187Z,37.06
2022-11-20T18:32:07.940Z,36.88
2022-11-20T18:34:20.556Z,36.80
2022-11-20T18:36:35.173Z,36.41
2022-11-20T18:38:48.559Z,36.32
2022-11-20T18:41:03.888Z,36.45
2022-11-20T18:43:36.494Z,36.93
2022-11-20T18:45:49.210Z,36.75
2022-11-20T18:48:02.089Z,36.85
2022-11-20T18:50:15.519Z,36.56
2022-11-20T18:52:30.148Z,36.20
2022-11-20T18:54:43.044Z,36.31
2022-11-20T18:56:56.084Z,36.13
2022-11-20T18:59:10.476Z,36.55
2022-11-20T19:01:23.379Z,36.30
2022-11-20T19:03:37.887Z,36.03
2022-11-20T19:05:50.597Z,35.97
2022-11-20T19:08:03.449Z,36.05
2022-11-20T19:10:16.520Z,36.33
2022-11-20T19:12:29.385Z,36.49
2022-11-20T19:14:42.484Z,36.53
2022-11-20T19:16:55.469Z,36.50
2022-11-20T19:19:09.423Z,36.52
2022-11-20T19:21:23.969Z,36.91
2022-11-20T19:23:36.663Z,36.78
2022-11-20T19:25:49.504Z,37.66
2022-11-20T19:28:02.872Z,37.61
2022-11-20T19:30:18.384Z,37.33
2022-11-20T19:32:31.524Z,37.10
2022-11-20T19:34:44.825Z,37.39
2022-11-20T19:36:57.872Z,37.16
2022-11-20T19:39:11.759Z,37.03
2022-11-20T19:41:29.890Z,36.84
2022-11-20T19:43:42.634Z,37.02
2022-11-20T19:45:55.547Z,36.92
2022-11-20T19:48:09.001Z,36.30
2022-11-20T19:50:22.001Z,35.50
2022-11-20T19:52:34.741Z,35.60
2022-11-20T19:54:48.412Z,35.64
2022-11-20T19:57:02.312Z,36.35
2022-11-20T19:59:15.194Z,36.64
2022-11-20T20:01:29.806Z,36.29
2022-11-20T20:03:43.720Z,36.62
2022-11-20T20:05:57.099Z,36.82
2022-11-20T20:08:12.148Z,36.30
2022-11-20T20:10:28.209Z,36.87
2022-11-20T20:12:40.891Z,37.01
2022-11-20T20:14:53.820Z,36.88
2022-11-20T20:17:06.838Z,36.73
2022-11-20T20:19:21.964Z,37.17
2022-11-20T20:21:37.363Z,36.88
2022-11-20T20:23:53.563Z,37.37
2022-11-20T20:26:08.034Z,37.53
2022-11-20T20:28:21.479Z,37.89
2022-11-20T20:30:34.769Z,37.91
2022-11-20T20:32:50.715Z,37.45
2022-11-20T20:35:06.170Z,37.86
2022-11-20T20:37:18.951Z,37.47
2022-11-20T20:39:32.436Z,37.63
2022-11-20T20:41:45.008Z,37.71
2022-11-20T20:44:14.746Z,38.00
2022-11-20T20:46:27.699Z,38.20
2022-11-20T20:48:41.275Z,38.22
2022-11-20T20:51:02.146Z,38.38
2022-11-20T20:53:14.729Z,38.90
2022-11-20T20:55:27.469Z,38.64
2022-11-20T20:57:40.896Z,38.58
2022-11-20T20:59:54.451Z,38.62
2022-11-20T21:02:07.546Z,38.96
2022-11-20T21:04:20.390Z,38.82
2022-11-20T21:06:33.295Z,38.43
2022-11-20T21:08:46.138Z,38.44
2022-11-20T21:11:03.506Z,38.52
2022-11-20T21:13:16.212Z,38.69
2022-11-20T21:15:29.014Z,38.89
2022-11-20T21:17:45.243Z,39.01
2022-11-20T21:19:58.088Z,39.10
2022-11-20T21:22:11.054Z,39.49
2022-11-20T21:24:24.013Z,39.75
2022-11-20T21:26:37.479Z,39.87
2022-11-20T21:28:50.890Z,40.07
2022-11-20T21:31:11.852Z,39.90
2022-11-20T21:33:24.759Z,39.67
2022-11-20T21:35:40.703Z,39.35
2022-11-20T21:37:53.450Z,39.48
2022-11-20T21:40:06.246Z,39.28
2022-11-20T21:42:19.870Z,39.81
2022-11-20T21:44:34.602Z,39.90
2022-11-20T21:46:49.089Z,40.17
2022-11-20T21:49:02.425Z,39.83
2022-11-20T21:51:18.439Z,40.00
2022-11-20T21:53:31.508Z,40.19
2022-11-20T21:55:44.365Z,40.08
2022-11-20T21:57:57.138Z,40.43
2022-11-20T22:00:11.988Z,40.25
2022-11-20T22:02:24.547Z,40.27
2022-11-20T22:04:37.169Z,40.09
2022-11-20T22:06:49.909Z,40.66
2022-11-20T22:09:03.234Z,40.78
2022-11-20T22:11:18.439Z,40.51
2022-11-20T22:13:48.509Z,40.87
2022-11-20T22:16:06.614Z,40.71
2022-11-20T22:18:19.410Z,40.56
2022-11-20T22:20:32.653Z,40.92
2022-11-20T22:22:45.412Z,40.83
2022-11-20T22:24:58.732Z,40.63
2022-11-20T22:27:13.441Z,40.86
2022-11-20T22:29:26.957Z,40.88
2022-11-20T22:31:40.181Z,40.70
2022-11-20T22:33:53.174Z,40.91
2022-11-20T22:36:10.871Z,40.75
2022-11-20T22:38:26.588Z,40.82
2022-11-20T22:40:44.877Z,40.77
2022-11-20T22:42:57.650Z,40.95
2022-11-20T22:45:12.779Z,41.31
2022-11-20T22:47:25.536Z,41.31
2022-11-20T22:49:38.224Z,41.32
2022-11-20T22:51:50.924Z,41.51
2022-11-20T22:54:04.883Z,41.76
2022-11-20T22:56:18.499Z,41.74
2022-11-20T22:58:33.750Z,41.69
2022-11-20T23:00:46.479Z,41.81
2022-11-20T23:02:59.374Z,41.93
2022-11-20T23:05:12.798Z,42.29
2022-11-20T23:07:25.866Z,42.10
2022-11-20T23:09:38.850Z,42.35
2022-11-20T23:11:52.878Z,42.67
2022-11-20T23:14:07.768Z,42.94
2022-11-20T23:16:22.324Z,43.05
2022-11-20T23:18:36.030Z,42.90
2022-11-20T23:20:48.541Z,43.10
2022-11-20T23:23:01.452Z,42.92
2022-11-20T23:25:15.301Z,43.13
2022-11-20T23:27:28.474Z,43.35
2022-11-20T23:29:41.623Z,43.19
2022-11-20T23:31:54.959Z,43.39
2022-11-20T23:34:08.216Z,43.18
2022-11-20T23:36:21.054Z,42.97
2022-11-20T23:38:34.356Z,42.93
2022-11-20T23:40:49.470Z,43.00
2022-11-20T23:43:20.334Z,42.73
2022-11-20T23:45:33.571Z,42.61
2022-11-20T23:47:46.292Z,42.58
2022-11-20T23:49:59.032Z,42.44
2022-11-20T23:52:12.619Z,42.64
2022-11-20T23:54:25.420Z,42.72
2022-11-20T23:56:39.089Z,42.58
2022-11-20T23:58:51.659Z,42.77
